Time;durP1;ratioP1;P1;durP2;ratioP2;P2;SDS_P1;SDS_P2;PMS_P1;PMS_P2;Temp;Humidity;BMP_temperature;BMP_pressure;BME280_temperature;BME280_humidity;BME280_pressure;Samples;Min_cycle;Max_cycle;Signal;HPM_P1;HPM_P2
2022/09/04 00:01:44;;;;;;;2.90;2.70;;;16.90;99.90;;;;;;6218544;23;20355;-44
2022/09/04 00:04:34;;;;;;;2.90;2.60;;;16.90;99.90;;;;;;6218237;23;20433;-44
2022/09/04 00:07:18;;;;;;;5.00;2.90;;;17.00;99.90;;;;;;6217282;23;20464;-45
2022/09/04 00:10:13;;;;;;;3.57;2.57;;;16.90;99.90;;;;;;6217617;23;20511;-42
2022/09/04 00:13:00;;;;;;;3.10;2.70;;;16.90;99.90;;;;;;6190523;23;20523;-43
2022/09/04 00:15:34;;;;;;;3.00;2.50;;;16.90;99.90;;;;;;6191880;23;20385;-43
2022/09/04 00:18:11;;;;;;;3.07;2.40;;;16.80;99.90;;;;;;6193700;23;20362;-45
2022/09/04 00:21:13;;;;;;;2.73;2.40;;;16.80;99.90;;;;;;6217170;23;20776;-46
2022/09/04 00:23:56;;;;;;;2.50;2.30;;;16.80;99.90;;;;;;6193614;23;20386;-43
2022/09/04 00:26:42;;;;;;;2.90;2.60;;;16.80;99.90;;;;;;6191512;23;20463;-46
2022/09/04 00:29:35;;;;;;;2.63;2.40;;;16.80;99.90;;;;;;6189948;23;20422;-48
2022/09/04 00:32:10;;;;;;;2.70;2.30;;;16.80;99.90;;;;;;6217544;23;20356;-44
2022/09/04 00:35:01;;;;;;;3.70;3.10;;;16.80;99.90;;;;;;6217399;23;20370;-45
2022/09/04 00:37:32;;;;;;;3.10;2.80;;;16.70;99.90;;;;;;6188721;23;20385;-44
2022/09/04 00:40:08;;;;;;;3.20;2.90;;;16.70;99.90;;;;;;6213824;23;20422;-44
2022/09/04 00:42:49;;;;;;;4.70;3.07;;;16.70;99.90;;;;;;6213802;23;20358;-44
2022/09/04 00:45:26;;;;;;;4.10;3.00;;;16.70;99.90;;;;;;6216584;23;20716;-45
2022/09/04 00:48:19;;;;;;;2.93;2.63;;;16.70;99.90;;;;;;6216793;23;20696;-44
2022/09/04 00:50:54;;;;;;;3.10;2.80;;;16.70;99.90;;;;;;6217647;23;20731;-45
2022/09/04 00:53:54;;;;;;;3.20;2.90;;;16.70;99.90;;;;;;6192389;23;20358;-45
2022/09/04 00:56:51;;;;;;;3.40;3.10;;;16.70;99.90;;;;;;6219111;23;20453;-46
2022/09/04 00:59:32;;;;;;;3.90;3.50;;;16.70;99.90;;;;;;6167328;23;20820;-46
2022/09/04 01:02:31;;;;;;;3.80;3.30;;;16.70;99.90;;;;;;6218940;23;20361;-46
2022/09/04 01:05:19;;;;;;;3.93;2.80;;;16.70;99.90;;;;;;6167474;23;20402;-43
2022/09/04 01:08:14;;;;;;;2.63;2.43;;;16.60;99.90;;;;;;6191416;23;20535;-43
2022/09/04 01:10:55;;;;;;;3.67;3.07;;;16.50;99.90;;;;;;6189270;23;20496;-43
2022/09/04 01:13:41;;;;;;;3.10;2.90;;;16.50;99.90;;;;;;6190671;23;20374;-43
2022/09/04 01:16:27;;;;;;;3.43;2.70;;;16.50;99.90;;;;;;6190883;23;20433;-45
2022/09/04 01:19:20;;;;;;;3.50;3.20;;;16.50;99.90;;;;;;6140948;23;20709;-45
2022/09/04 01:22:12;;;;;;;2.90;2.60;;;16.50;99.90;;;;;;6216302;23;20807;-45
2022/09/04 01:25:06;;;;;;;3.00;2.80;;;16.50;99.90;;;;;;6191112;23;20598;-45
2022/09/04 01:28:09;;;;;;;3.50;3.20;;;16.50;99.90;;;;;;6084313;23;20425;-43
2022/09/04 01:31:19;;;;;;;4.40;3.50;;;16.50;99.90;;;;;;6190939;23;20413;-43
2022/09/04 01:34:16;;;;;;;3.63;3.33;;;16.50;99.90;;;;;;6177652;23;20382;-44
2022/09/04 01:37:10;;;;;;;3.57;3.27;;;16.50;99.90;;;;;;6215811;23;20393;-43
2022/09/04 01:39:36;;;;;;;3.87;2.90;;;16.50;99.90;;;;;;6216316;23;20365;-45
2022/09/04 01:42:16;;;;;;;3.70;3.40;;;16.50;99.90;;;;;;6190042;23;20378;-44
2022/09/04 01:44:42;;;;;;;3.63;3.33;;;16.50;99.90;;;;;;6190504;23;20479;-44
2022/09/04 01:47:46;;;;;;;2.90;2.70;;;16.40;99.90;;;;;;6217188;23;20458;-45
2022/09/04 01:50:18;;;;;;;3.60;3.30;;;16.40;99.90;;;;;;6189190;23;20163;-43
2022/09/04 01:53:11;;;;;;;3.67;3.37;;;16.30;99.90;;;;;;6188793;23;20435;-44
2022/09/04 01:56:03;;;;;;;3.60;3.30;;;16.30;99.90;;;;;;6190924;23;20638;-43
2022/09/04 01:58:53;;;;;;;6.30;3.33;;;16.30;99.90;;;;;;6189155;23;20518;-44
2022/09/04 02:01:34;;;;;;;3.60;2.90;;;16.30;99.90;;;;;;6214053;23;20673;-48
2022/09/04 02:04:41;;;;;;;3.73;3.40;;;16.30;99.90;;;;;;6188076;23;20367;-45
2022/09/04 02:07:26;;;;;;;3.93;3.33;;;16.30;99.90;;;;;;6189839;23;20382;-43
2022/09/04 02:10:02;;;;;;;3.33;3.03;;;16.30;99.90;;;;;;6214826;23;20409;-43
2022/09/04 02:12:52;;;;;;;4.33;2.90;;;16.30;99.90;;;;;;6214574;23;20862;-45
2022/09/04 02:15:24;;;;;;;3.37;3.10;;;16.30;99.90;;;;;;6189108;23;20390;-44
2022/09/04 02:18:06;;;;;;;3.30;2.63;;;16.20;99.90;;;;;;6215352;23;20359;-43
2022/09/04 02:20:31;;;;;;;4.03;3.73;;;16.20;99.90;;;;;;6188369;23;20669;-45
2022/09/04 02:23:23;;;;;;;3.70;3.07;;;16.20;99.90;;;;;;6214493;23;20366;-44
2022/09/04 02:26:16;;;;;;;6.10;3.53;;;16.20;99.90;;;;;;6190480;23;20158;-44
2022/09/04 02:28:56;;;;;;;3.60;3.30;;;16.10;99.90;;;;;;6188010;23;20461;-45
2022/09/04 02:31:47;;;;;;;4.73;4.13;;;16.10;99.90;;;;;;6214837;23;20452;-43
2022/09/04 02:34:42;;;;;;;4.10;3.40;;;16.10;99.90;;;;;;6189597;23;20485;-45
2022/09/04 02:37:20;;;;;;;3.43;3.13;;;16.10;99.90;;;;;;6184381;23;20856;-45
2022/09/04 02:40:10;;;;;;;3.20;2.80;;;16.00;99.90;;;;;;6217382;23;20400;-44
2022/09/04 02:42:40;;;;;;;3.00;2.80;;;16.00;99.90;;;;;;6216744;23;20416;-44
2022/09/04 02:45:15;;;;;;;3.00;2.80;;;16.10;99.90;;;;;;6191049;23;20367;-43
2022/09/04 02:48:02;;;;;;;4.93;2.90;;;16.00;99.90;;;;;;6191034;23;21015;-44
2022/09/04 02:50:40;;;;;;;2.60;2.40;;;16.00;99.90;;;;;;6217147;23;20778;-43
2022/09/04 02:53:33;;;;;;;4.30;3.90;;;15.90;99.90;;;;;;6217303;23;20507;-45
2022/09/04 02:56:34;;;;;;;3.30;3.00;;;15.90;99.90;;;;;;6217727;23;20342;-48
2022/09/04 02:59:23;;;;;;;3.30;3.00;;;15.90;99.90;;;;;;6191150;23;20397;-45
2022/09/04 03:01:56;;;;;;;3.43;3.13;;;15.90;99.90;;;;;;6190523;23;20734;-44
2022/09/04 03:04:27;;;;;;;3.70;3.40;;;15.90;99.90;;;;;;6192393;23;20394;-44
2022/09/04 03:07:14;;;;;;;3.50;3.20;;;15.80;99.90;;;;;;6218875;23;20802;-44
2022/09/04 03:09:54;;;;;;;3.40;3.10;;;15.80;99.90;;;;;;6191880;23;20532;-43
2022/09/04 03:12:39;;;;;;;3.53;3.23;;;15.90;99.90;;;;;;6192023;23;20467;-45
2022/09/04 03:15:28;;;;;;;4.13;3.33;;;15.90;99.90;;;;;;6193704;23;20382;-44
2022/09/04 03:18:13;;;;;;;3.40;3.10;;;15.80;99.90;;;;;;6219679;23;20376;-45
2022/09/04 03:20:50;;;;;;;4.30;3.60;;;15.90;99.90;;;;;;6168518;23;20415;-45
2022/09/04 03:23:54;;;;;;;3.80;3.50;;;15.90;99.90;;;;;;6218882;23;20390;-45
2022/09/04 03:26:26;;;;;;;4.57;3.60;;;15.90;99.90;;;;;;6120105;23;20440;-45
2022/09/04 03:29:09;;;;;;;3.90;3.27;;;15.90;99.90;;;;;;6218926;23;20383;-45
2022/09/04 03:31:42;;;;;;;3.77;3.47;;;15.90;99.90;;;;;;6220493;23;20354;-45
2022/09/04 03:34:19;;;;;;;3.37;2.90;;;15.80;99.90;;;;;;6218554;23;20749;-47
2022/09/04 03:37:00;;;;;;;3.30;3.00;;;15.80;99.90;;;;;;6218943;23;20786;-46
2022/09/04 03:39:57;;;;;;;4.50;4.10;;;15.80;99.90;;;;;;6220108;23;20639;-45
2022/09/04 03:42:32;;;;;;;4.30;3.90;;;15.80;99.90;;;;;;6192331;23;20358;-46
2022/09/04 03:45:19;;;;;;;4.00;3.60;;;15.70;99.90;;;;;;6218390;23;20390;-47
2022/09/04 03:48:12;;;;;;;3.73;3.30;;;15.70;99.90;;;;;;6217124;23;20440;-45
2022/09/04 03:50:43;;;;;;;4.17;3.77;;;15.70;99.90;;;;;;6217974;23;20425;-44
2022/09/04 03:53:40;;;;;;;4.17;3.80;;;15.70;99.90;;;;;;6190964;23;20372;-45
2022/09/04 03:56:36;;;;;;;3.60;3.30;;;15.60;99.90;;;;;;6217181;23;20430;-43
2022/09/04 03:59:07;;;;;;;3.53;3.20;;;15.60;99.90;;;;;;6216597;23;20358;-46
2022/09/04 04:01:57;;;;;;;4.03;3.70;;;15.60;99.90;;;;;;6217101;23;20411;-46
2022/09/04 04:04:44;;;;;;;3.90;3.60;;;15.60;99.90;;;;;;6217217;23;20755;-46
2022/09/04 04:07:29;;;;;;;4.17;3.87;;;15.60;99.90;;;;;;6216086;23;20767;-47
2022/09/04 04:10:07;;;;;;;3.23;2.93;;;15.60;99.90;;;;;;6216512;23;20422;-43
2022/09/04 04:12:33;;;;;;;3.00;2.80;;;15.70;99.90;;;;;;6217483;23;20519;-45
2022/09/04 04:15:12;;;;;;;3.40;3.10;;;15.60;99.90;;;;;;6216436;23;20706;-45
2022/09/04 04:17:50;;;;;;;3.70;3.30;;;15.60;99.90;;;;;;6216688;23;20418;-45
2022/09/04 04:20:26;;;;;;;3.87;3.57;;;15.60;99.90;;;;;;6216501;23;20384;-45
2022/09/04 04:23:18;;;;;;;3.90;3.60;;;15.60;99.90;;;;;;6216899;23;20409;-47
2022/09/04 04:26:04;;;;;;;3.70;3.40;;;15.60;99.90;;;;;;6216154;23;20398;-46
2022/09/04 04:28:40;;;;;;;3.67;3.37;;;15.50;99.90;;;;;;6190664;23;20776;-44
2022/09/04 04:31:15;;;;;;;4.10;3.63;;;15.60;99.90;;;;;;6216103;23;20424;-45
2022/09/04 04:33:50;;;;;;;3.70;3.33;;;15.50;99.90;;;;;;6215727;23;20349;-45
2022/09/04 04:36:40;;;;;;;3.60;3.30;;;15.60;99.90;;;;;;6215247;23;20622;-44
2022/09/04 04:39:24;;;;;;;3.90;3.50;;;15.60;99.90;;;;;;6215388;23;20386;-45
2022/09/04 04:42:04;;;;;;;4.20;3.30;;;15.70;99.90;;;;;;6190028;23;20401;-45
2022/09/04 04:48:02;;;;;;;4.30;3.57;;;15.70;99.90;;;;;;6216097;23;20412;-45
2022/09/04 04:50:31;;;;;;;3.70;3.40;;;15.80;99.90;;;;;;6216518;23;20836;-46
2022/09/04 04:53:21;;;;;;;4.57;3.60;;;15.80;99.90;;;;;;6216134;23;20362;-44
2022/09/04 04:56:04;;;;;;;3.83;3.53;;;15.80;99.90;;;;;;6190187;23;20387;-43
2022/09/04 04:58:49;;;;;;;4.20;3.80;;;15.90;99.90;;;;;;6190399;23;20592;-44
2022/09/04 05:02:29;;;;;;;3.63;3.33;;;15.80;99.90;;;;;;6215732;23;20744;-45
2022/09/04 05:05:16;;;;;;;4.30;4.00;;;15.70;99.90;;;;;;5987393;23;20562;-49
2022/09/04 05:08:01;;;;;;;6.23;3.73;;;15.70;99.90;;;;;;6124305;23;20496;-44
2022/09/04 05:11:20;;;;;;;3.87;3.57;;;15.80;99.90;;;;;;6167124;23;20709;-43
2022/09/04 05:14:04;;;;;;;4.00;3.70;;;15.80;99.90;;;;;;6066873;23;20409;-44
2022/09/04 05:16:46;;;;;;;4.33;3.93;;;15.80;99.90;;;;;;6216392;23;20428;-43
2022/09/04 05:19:39;;;;;;;3.87;3.57;;;15.80;99.90;;;;;;6190970;23;20837;-45
2022/09/04 05:22:19;;;;;;;4.20;3.80;;;15.80;99.90;;;;;;6216934;23;20393;-46
2022/09/04 05:25:13;;;;;;;4.60;3.57;;;15.80;99.90;;;;;;6191392;23;20355;-45
2022/09/04 05:27:51;;;;;;;3.50;3.20;;;15.80;99.90;;;;;;6191107;23;20449;-44
2022/09/04 05:30:46;;;;;;;3.57;3.27;;;15.80;99.90;;;;;;6190964;23;20491;-44
2022/09/04 05:33:33;;;;;;;4.43;3.50;;;15.90;99.90;;;;;;6189777;23;20367;-44
2022/09/04 05:36:07;;;;;;;3.77;3.47;;;15.90;99.90;;;;;;6190430;23;20639;-44
2022/09/04 05:39:19;;;;;;;6.23;3.60;;;16.00;99.90;;;;;;6216927;23;20651;-45
2022/09/04 05:41:59;;;;;;;4.93;3.50;;;16.00;99.90;;;;;;6175368;23;20436;-44
2022/09/04 05:45:00;;;;;;;4.23;3.90;;;16.10;99.90;;;;;;6216011;23;20388;-44
2022/09/04 05:47:57;;;;;;;3.90;3.60;;;16.20;99.90;;;;;;6165355;23;20405;-43
2022/09/04 05:50:37;;;;;;;3.60;3.30;;;16.30;99.90;;;;;;6216588;23;20410;-44
2022/09/04 05:53:03;;;;;;;4.07;3.70;;;16.40;99.90;;;;;;6216071;23;20451;-44
2022/09/04 05:55:59;;;;;;;3.80;3.47;;;16.40;99.90;;;;;;6216425;23;20354;-43
2022/09/04 05:58:36;;;;;;;4.00;3.63;;;16.60;99.90;;;;;;6191298;23;20150;-45
2022/09/04 06:01:22;;;;;;;3.93;3.63;;;16.70;99.90;;;;;;6216915;23;20361;-43
2022/09/04 06:04:09;;;;;;;4.20;3.87;;;16.80;99.90;;;;;;6216766;23;20452;-43
2022/09/04 06:06:58;;;;;;;4.27;3.87;;;16.90;99.90;;;;;;6217152;23;20370;-44
2022/09/04 06:09:30;;;;;;;5.20;4.50;;;17.10;99.90;;;;;;6190574;23;20402;-46
2022/09/04 06:12:24;;;;;;;4.10;3.70;;;17.30;99.90;;;;;;6215979;23;20421;-46
2022/09/04 06:14:59;;;;;;;4.70;4.10;;;17.50;99.90;;;;;;6215333;23;20357;-44
2022/09/04 06:17:50;;;;;;;4.37;3.90;;;17.60;99.90;;;;;;6190600;23;20520;-45
2022/09/04 06:20:41;;;;;;;3.47;3.17;;;17.70;99.90;;;;;;6216691;23;20453;-44
2022/09/04 06:23:27;;;;;;;4.27;3.87;;;17.80;99.90;;;;;;6216885;23;20685;-43
2022/09/04 06:26:14;;;;;;;4.50;4.17;;;18.00;99.90;;;;;;6218114;23;20370;-45
2022/09/04 06:29:00;;;;;;;6.40;4.83;;;18.20;99.90;;;;;;6216428;23;20385;-44
2022/09/04 06:31:55;;;;;;;4.00;3.70;;;18.20;99.90;;;;;;6217269;23;20363;-43
2022/09/04 06:34:51;;;;;;;5.00;4.50;;;18.30;99.90;;;;;;6217066;23;20615;-45
2022/09/04 06:37:45;;;;;;;4.90;4.50;;;18.10;99.90;;;;;;6216882;23;20373;-44
2022/09/04 06:40:17;;;;;;;4.13;3.70;;;18.10;99.90;;;;;;6130606;23;20492;-45
2022/09/04 06:42:57;;;;;;;4.00;3.70;;;18.20;99.90;;;;;;6218153;23;20650;-43
2022/09/04 06:46:01;;;;;;;4.90;4.50;;;18.40;99.90;;;;;;6218759;23;20361;-45
2022/09/04 06:49:05;;;;;;;4.40;4.10;;;18.50;99.90;;;;;;6069180;23;20415;-43
2022/09/04 06:52:21;;;;;;;4.83;4.43;;;18.70;99.60;;;;;;6127410;23;20413;-43
2022/09/04 06:54:59;;;;;;;4.60;4.17;;;18.80;99.50;;;;;;6102984;23;20389;-44
2022/09/04 06:57:45;;;;;;;6.40;4.90;;;18.80;99.70;;;;;;6191364;23;20389;-44
2022/09/04 07:00:15;;;;;;;4.47;4.07;;;18.90;99.60;;;;;;6219169;23;20347;-44
2022/09/04 07:03:00;;;;;;;5.03;4.63;;;19.00;99.90;;;;;;6193151;23;20378;-44
2022/09/04 07:05:48;;;;;;;4.63;4.27;;;19.10;99.80;;;;;;6218339;23;20376;-43
2022/09/04 07:08:37;;;;;;;4.87;4.47;;;19.20;99.50;;;;;;6218158;23;20382;-44
2022/09/04 07:11:32;;;;;;;4.90;4.50;;;19.40;99.40;;;;;;6190276;23;20415;-46
2022/09/04 07:14:18;;;;;;;4.60;4.20;;;19.60;99.30;;;;;;6190667;23;20413;-45
2022/09/04 07:16:49;;;;;;;4.80;4.40;;;19.80;98.80;;;;;;6217433;23;20368;-48
2022/09/04 07:19:47;;;;;;;4.40;4.00;;;20.00;98.60;;;;;;6165527;23;20409;-45
2022/09/04 07:22:28;;;;;;;3.53;3.23;;;20.20;97.90;;;;;;6177140;23;20412;-44
2022/09/04 07:25:12;;;;;;;3.90;3.60;;;20.30;97.90;;;;;;6219169;23;20353;-47
2022/09/04 07:28:31;;;;;;;4.57;4.17;;;20.40;97.80;;;;;;6217632;23;20939;-44
2022/09/04 07:31:23;;;;;;;3.97;3.67;;;20.60;97.30;;;;;;6171842;23;20429;-45
2022/09/04 07:34:13;;;;;;;5.13;4.37;;;20.70;97.30;;;;;;6190316;23;20400;-44
2022/09/04 07:36:56;;;;;;;4.50;3.77;;;21.00;96.90;;;;;;6190499;23;20663;-43
2022/09/04 07:39:58;;;;;;;3.83;3.53;;;21.10;96.70;;;;;;6216289;23;20373;-43
2022/09/04 07:43:01;;;;;;;4.30;4.00;;;21.30;96.80;;;;;;6210936;23;20863;-46
2022/09/04 07:45:49;;;;;;;6.60;3.40;;;21.40;96.40;;;;;;6218039;23;20352;-44
2022/09/04 07:48:35;;;;;;;3.53;3.23;;;21.70;95.90;;;;;;6194240;23;20391;-46
2022/09/04 07:51:12;;;;;;;4.20;3.80;;;21.80;95.50;;;;;;6191742;23;20694;-43
2022/09/04 07:54:18;;;;;;;3.50;2.83;;;22.20;95.40;;;;;;6192222;23;20394;-46
2022/09/04 07:57:16;;;;;;;3.30;3.00;;;22.20;94.20;;;;;;6097616;23;20455;-44
2022/09/04 07:59:53;;;;;;;2.73;2.53;;;22.50;94.20;;;;;;6190952;23;20369;-45
2022/09/04 08:02:41;;;;;;;2.63;2.43;;;22.70;93.60;;;;;;6218696;23;20384;-46
2022/09/04 08:05:13;;;;;;;3.87;3.50;;;23.20;93.80;;;;;;6217102;23;20442;-45
2022/09/04 08:07:38;;;;;;;2.80;2.60;;;23.40;92.20;;;;;;6216740;23;20388;-44
2022/09/04 08:10:19;;;;;;;5.83;2.80;;;23.30;91.90;;;;;;6216125;23;20409;-44
2022/09/04 08:13:09;;;;;;;3.20;2.90;;;23.60;91.90;;;;;;6216149;23;20203;-45
2022/09/04 08:15:45;;;;;;;2.87;2.20;;;23.90;91.60;;;;;;6215592;23;20371;-45
2022/09/04 08:18:29;;;;;;;3.73;2.50;;;24.00;91.10;;;;;;6188780;23;20423;-45
2022/09/04 08:21:08;;;;;;;2.67;2.47;;;24.40;90.40;;;;;;6213229;23;20358;-46
2022/09/04 08:23:57;;;;;;;2.93;2.73;;;24.50;89.10;;;;;;6213852;23;20402;-46
2022/09/04 08:26:42;;;;;;;2.33;1.97;;;24.50;89.60;;;;;;6213585;23;20359;-45
2022/09/04 08:29:38;;;;;;;5.10;2.60;;;25.00;89.20;;;;;;6188137;23;20798;-45
2022/09/04 08:32:19;;;;;;;3.50;2.40;;;25.30;88.00;;;;;;6217605;23;20857;-48
2022/09/04 08:35:07;;;;;;;2.60;2.40;;;25.60;86.20;;;;;;6215045;23;20364;-46
2022/09/04 08:37:51;;;;;;;2.00;1.80;;;25.90;86.20;;;;;;6215095;23;20411;-46
2022/09/04 08:40:26;;;;;;;3.00;2.53;;;26.30;85.50;;;;;;6213305;23;20367;-45
2022/09/04 08:43:45;;;;;;;3.00;2.70;;;26.50;82.40;;;;;;6216523;23;20395;-45
2022/09/04 08:46:34;;;;;;;2.50;2.30;;;26.80;80.90;;;;;;6067595;23;20463;-44
2022/09/04 08:49:25;;;;;;;2.07;1.93;;;26.50;78.20;;;;;;6041865;23;20404;-45
2022/09/04 08:52:05;;;;;;;2.57;2.37;;;26.80;78.80;;;;;;6151631;23;20421;-44
2022/09/04 08:54:41;;;;;;;2.87;2.40;;;26.90;75.20;;;;;;6191919;23;20353;-44
2022/09/04 08:57:22;;;;;;;2.83;2.60;;;26.90;76.70;;;;;;6191906;23;20797;-45
2022/09/04 09:00:21;;;;;;;3.30;2.10;;;26.80;73.40;;;;;;6190197;23;20425;-47
2022/09/04 09:03:05;;;;;;;3.33;2.00;;;26.70;72.20;;;;;;6216388;23;20645;-44
2022/09/04 09:05:46;;;;;;;2.80;1.90;;;27.30;72.80;;;;;;6216099;23;20404;-45
2022/09/04 09:08:49;;;;;;;1.93;1.83;;;27.70;70.60;;;;;;6188481;23;20393;-45
2022/09/04 09:11:42;;;;;;;2.90;2.00;;;28.10;68.70;;;;;;6215481;23;20726;-45
2022/09/04 09:14:26;;;;;;;1.90;1.70;;;28.10;66.60;;;;;;6189343;23;20426;-46
2022/09/04 09:17:11;;;;;;;2.43;2.23;;;28.50;66.00;;;;;;6216160;23;20383;-46
2022/09/04 09:19:43;;;;;;;4.63;2.50;;;28.20;66.50;;;;;;6216415;23;20368;-45
2022/09/04 09:22:11;;;;;;;2.23;2.03;;;28.70;66.90;;;;;;6217493;23;20757;-46
2022/09/04 09:24:53;;;;;;;3.30;1.93;;;29.10;64.90;;;;;;6217339;23;20340;-45
2022/09/04 09:27:30;;;;;;;2.00;1.80;;;29.40;60.20;;;;;;6214805;23;20689;-47
2022/09/04 09:30:06;;;;;;;1.90;1.60;;;29.50;59.20;;;;;;6215374;23;20439;-47
2022/09/04 09:33:23;;;;;;;2.13;1.80;;;29.50;59.80;;;;;;6189280;23;20359;-46
2022/09/04 09:36:06;;;;;;;2.70;2.47;;;29.00;57.90;;;;;;6152563;23;20385;-47
2022/09/04 09:38:40;;;;;;;3.60;2.10;;;29.30;57.30;;;;;;6215094;23;20384;-48
2022/09/04 09:41:30;;;;;;;2.20;1.80;;;29.70;57.80;;;;;;6213341;23;20410;-49
2022/09/04 09:44:25;;;;;;;2.43;2.03;;;30.20;57.80;;;;;;6211867;23;20665;-43
2022/09/04 09:47:25;;;;;;;3.90;2.10;;;30.40;56.50;;;;;;6185335;23;20802;-43
2022/09/04 09:50:19;;;;;;;2.10;1.90;;;30.50;55.00;;;;;;6213881;23;20473;-47
2022/09/04 09:53:18;;;;;;;2.07;1.80;;;30.60;55.30;;;;;;6214078;23;20781;-47
2022/09/04 09:56:11;;;;;;;2.20;2.00;;;30.60;53.80;;;;;;6215087;23;20349;-48
2022/09/04 09:59:02;;;;;;;2.30;2.10;;;30.60;53.30;;;;;;6216437;23;20352;-44
2022/09/04 10:01:49;;;;;;;2.43;2.13;;;31.10;53.10;;;;;;6215021;23;20334;-47
2022/09/04 10:04:27;;;;;;;1.83;1.70;;;31.20;52.90;;;;;;6215916;23;20375;-44
2022/09/04 10:06:59;;;;;;;4.00;2.00;;;31.70;52.80;;;;;;6216190;23;20323;-44
2022/09/04 10:09:49;;;;;;;2.03;1.83;;;32.00;51.40;;;;;;6216413;23;20387;-47
2022/09/04 10:12:33;;;;;;;2.73;1.80;;;31.90;50.50;;;;;;6215883;23;20405;-47
2022/09/04 10:15:08;;;;;;;2.40;2.20;;;31.40;48.80;;;;;;6215239;23;20700;-45
2022/09/04 10:17:52;;;;;;;3.17;2.20;;;30.70;50.00;;;;;;6189315;23;20433;-45
2022/09/04 10:20:35;;;;;;;1.77;1.63;;;30.70;50.10;;;;;;6216211;23;20689;-46
2022/09/04 10:23:16;;;;;;;2.03;1.83;;;31.10;49.70;;;;;;6189621;23;20724;-46
2022/09/04 10:26:19;;;;;;;2.50;2.00;;;31.50;50.70;;;;;;6188989;23;20424;-48
2022/09/04 10:29:17;;;;;;;2.47;1.70;;;32.10;48.40;;;;;;6211633;23;20393;-46
2022/09/04 10:31:59;;;;;;;2.20;2.00;;;32.70;46.10;;;;;;6189024;23;20361;-48
2022/09/04 10:34:27;;;;;;;2.83;2.40;;;32.80;46.80;;;;;;6214421;23;20766;-46
2022/09/04 10:37:21;;;;;;;2.20;1.60;;;33.20;45.60;;;;;;6215222;23;20331;-49
2022/09/04 10:43:09;;;;;;;3.40;1.87;;;33.80;44.30;;;;;;6213640;23;20764;-46
2022/09/04 10:45:43;;;;;;;2.10;1.90;;;32.80;45.00;;;;;;6212593;23;20503;-45
2022/09/04 10:48:23;;;;;;;2.97;2.10;;;32.60;45.90;;;;;;6188451;23;20806;-46
2022/09/04 10:51:11;;;;;;;3.20;2.27;;;32.30;46.30;;;;;;6188788;23;20465;-46
2022/09/04 10:53:37;;;;;;;2.30;2.00;;;31.80;47.50;;;;;;6188319;23;20715;-46
2022/09/04 10:56:25;;;;;;;2.40;2.13;;;31.30;47.40;;;;;;6215840;23;20338;-46
2022/09/04 10:59:02;;;;;;;2.53;2.30;;;30.60;48.10;;;;;;6214984;23;20388;-47
2022/09/04 11:01:53;;;;;;;7.50;2.80;;;30.20;49.40;;;;;;6214992;23;20448;-45
2022/09/04 11:04:34;;;;;;;2.37;1.90;;;29.80;50.30;;;;;;6214675;23;20449;-45
2022/09/04 11:07:18;;;;;;;2.37;2.10;;;29.50;50.10;;;;;;6213972;23;20739;-47
2022/09/04 11:09:52;;;;;;;3.13;2.93;;;29.20;51.00;;;;;;6215051;23;20418;-46
2022/09/04 11:12:42;;;;;;;2.50;2.30;;;29.00;51.50;;;;;;6214624;23;20722;-46
2022/09/04 11:15:36;;;;;;;2.23;2.07;;;28.70;51.90;;;;;;6213526;23;20350;-45
2022/09/04 11:18:02;;;;;;;2.93;2.63;;;28.50;52.90;;;;;;6215310;23;20835;-46
2022/09/04 11:20:46;;;;;;;2.57;2.37;;;28.50;53.60;;;;;;6213355;23;20381;-45
2022/09/04 11:23:42;;;;;;;2.73;2.53;;;28.50;53.60;;;;;;6212439;23;20362;-48
2022/09/04 11:26:14;;;;;;;3.00;2.80;;;28.30;54.10;;;;;;6213982;23;20375;-46
2022/09/04 11:28:39;;;;;;;2.90;2.27;;;28.10;54.10;;;;;;6215406;23;20371;-44
2022/09/04 11:31:08;;;;;;;3.90;3.03;;;28.10;53.80;;;;;;6215248;23;20417;-46
2022/09/04 11:34:02;;;;;;;2.47;2.27;;;28.00;53.80;;;;;;6216004;23;20142;-46
2022/09/04 11:37:06;;;;;;;2.30;2.10;;;27.90;54.40;;;;;;6203068;23;20651;-45
2022/09/04 11:39:40;;;;;;;3.50;2.50;;;28.00;53.00;;;;;;6215834;23;20326;-47
2022/09/04 11:42:29;;;;;;;2.00;1.57;;;27.90;53.00;;;;;;6216959;23;20655;-47
2022/09/04 11:45:33;;;;;;;2.20;2.00;;;27.80;53.30;;;;;;6190606;23;20361;-44
2022/09/04 11:48:05;;;;;;;2.40;1.90;;;27.90;51.60;;;;;;6191257;23;20381;-49
2022/09/04 11:50:51;;;;;;;3.03;2.10;;;27.80;51.40;;;;;;6217467;23;20696;-46
2022/09/04 11:53:40;;;;;;;2.47;2.27;;;27.60;53.30;;;;;;6216598;23;20506;-47
2022/09/04 11:56:53;;;;;;;2.00;1.80;;;27.60;53.40;;;;;;6145870;23;20902;-45
2022/09/04 11:59:40;;;;;;;2.43;2.07;;;27.80;53.10;;;;;;6066555;23;20677;-44
2022/09/04 12:02:36;;;;;;;2.50;2.30;;;28.20;53.90;;;;;;6179983;23;20378;-48
2022/09/04 12:05:12;;;;;;;2.23;2.00;;;29.10;51.10;;;;;;6215122;23;20439;-44
2022/09/04 12:07:56;;;;;;;2.33;2.13;;;30.00;49.60;;;;;;6217107;23;20594;-44
2022/09/04 12:10:34;;;;;;;2.30;1.73;;;30.40;49.30;;;;;;6216532;23;20904;-47
2022/09/04 12:13:29;;;;;;;2.00;1.80;;;31.20;49.10;;;;;;6218311;23;20435;-46
2022/09/04 12:16:14;;;;;;;2.33;2.13;;;32.10;45.50;;;;;;6216173;23;20363;-46
2022/09/04 12:18:53;;;;;;;4.10;2.00;;;32.70;44.30;;;;;;6216647;23;20415;-45
2022/09/04 12:21:56;;;;;;;2.90;2.10;;;32.90;45.00;;;;;;6216905;23;20408;-45
2022/09/04 12:24:43;;;;;;;4.10;2.47;;;33.60;44.30;;;;;;6217857;23;20345;-46
2022/09/04 12:27:30;;;;;;;3.60;2.40;;;34.70;43.90;;;;;;6215525;23;20366;-46
2022/09/04 12:30:25;;;;;;;2.37;2.17;;;35.60;41.20;;;;;;6216174;23;20935;-48
2022/09/04 12:33:18;;;;;;;2.30;2.10;;;36.10;39.40;;;;;;6188712;23;20389;-48
2022/09/04 12:36:13;;;;;;;3.23;2.43;;;36.60;38.80;;;;;;6188482;23;20443;-49
2022/09/04 12:38:59;;;;;;;2.23;2.03;;;36.00;37.30;;;;;;6212077;23;20361;-47
2022/09/04 12:41:56;;;;;;;1.97;1.80;;;34.70;38.80;;;;;;6186246;23;20782;-47
2022/09/04 12:44:48;;;;;;;2.33;2.13;;;34.40;39.80;;;;;;6214640;23;20368;-48
2022/09/04 12:48:03;;;;;;;2.17;1.97;;;33.80;40.00;;;;;;6189295;23;20363;-47
2022/09/04 12:50:44;;;;;;;2.33;2.13;;;32.40;41.30;;;;;;6182185;23;20432;-46
2022/09/04 12:53:47;;;;;;;2.50;2.17;;;32.40;41.20;;;;;;6189350;23;20371;-47
2022/09/04 12:56:44;;;;;;;2.10;1.90;;;31.80;42.20;;;;;;6216031;23;20357;-46
2022/09/04 12:59:26;;;;;;;2.23;2.03;;;31.20;42.20;;;;;;6218006;23;20319;-48
2022/09/04 13:02:16;;;;;;;3.97;2.03;;;30.60;43.20;;;;;;6216187;23;20348;-47
2022/09/04 13:04:54;;;;;;;6.57;2.40;;;30.40;43.50;;;;;;6191671;23;20751;-49
2022/09/04 13:08:18;;;;;;;2.37;2.17;;;30.10;43.70;;;;;;6218257;23;20463;-49
2022/09/04 13:10:55;;;;;;;2.80;2.00;;;30.00;44.60;;;;;;6066915;23;20421;-50
2022/09/04 13:13:30;;;;;;;2.03;1.77;;;29.80;44.60;;;;;;6217388;23;20347;-47
2022/09/04 13:16:05;;;;;;;3.27;2.07;;;29.50;45.10;;;;;;6215949;23;20744;-45
2022/09/04 13:19:08;;;;;;;2.30;2.10;;;29.00;45.50;;;;;;6215791;23;20401;-46
2022/09/04 13:22:16;;;;;;;4.03;1.80;;;28.50;46.20;;;;;;6137501;23;20374;-49
2022/09/04 13:25:21;;;;;;;2.93;2.33;;;28.90;46.40;;;;;;6188938;23;20373;-46
2022/09/04 13:28:01;;;;;;;2.70;2.27;;;29.90;45.40;;;;;;6188256;23;20678;-46
2022/09/04 13:30:28;;;;;;;2.90;1.90;;;31.20;45.10;;;;;;6214680;23;20489;-47
2022/09/04 13:33:38;;;;;;;2.53;2.33;;;31.90;43.10;;;;;;6165335;23;20423;-49
2022/09/04 13:36:09;;;;;;;2.87;2.67;;;32.50;42.40;;;;;;6189260;23;20500;-49
2022/09/04 13:38:56;;;;;;;2.27;2.00;;;32.60;42.20;;;;;;6214916;23;20361;-45
2022/09/04 13:41:28;;;;;;;1.93;1.83;;;32.60;42.10;;;;;;6214456;23;20366;-48
2022/09/04 13:43:59;;;;;;;2.30;2.10;;;32.90;42.10;;;;;;6215223;23;20374;-45
2022/09/04 13:46:30;;;;;;;2.40;2.20;;;33.60;42.30;;;;;;6215749;23;20486;-50
2022/09/04 13:49:04;;;;;;;2.80;2.17;;;34.30;41.50;;;;;;6190044;23;20371;-46
2022/09/04 13:51:46;;;;;;;2.00;1.80;;;35.00;40.70;;;;;;6190102;23;20866;-47
2022/09/04 13:54:26;;;;;;;2.20;1.90;;;35.60;38.70;;;;;;6187798;23;20434;-48
2022/09/04 13:57:19;;;;;;;2.40;2.10;;;35.30;38.80;;;;;;6215035;23;20378;-45
2022/09/04 13:59:48;;;;;;;2.37;2.17;;;35.10;38.80;;;;;;6215792;23;20476;-47
2022/09/04 14:02:24;;;;;;;2.20;2.00;;;35.40;39.00;;;;;;6165457;23;20347;-50
2022/09/04 14:04:59;;;;;;;2.20;2.00;;;35.80;40.00;;;;;;6216065;23;20395;-46
2022/09/04 14:07:32;;;;;;;4.37;2.00;;;36.40;38.60;;;;;;6214155;23;20364;-50
2022/09/04 14:10:00;;;;;;;2.53;2.23;;;36.70;37.90;;;;;;6214596;23;20444;-47
2022/09/04 14:13:08;;;;;;;2.33;2.13;;;36.80;38.20;;;;;;6188002;23;20404;-48
2022/09/04 14:16:10;;;;;;;2.20;2.00;;;37.20;37.50;;;;;;6214682;23;20986;-48
2022/09/04 14:18:35;;;;;;;2.23;2.03;;;37.40;37.70;;;;;;6215330;23;20345;-48
2022/09/04 14:21:40;;;;;;;2.53;2.33;;;37.70;37.10;;;;;;6214973;23;20449;-50
2022/09/04 14:24:31;;;;;;;2.03;1.80;;;37.30;36.10;;;;;;6062360;23;20706;-48
2022/09/04 14:27:24;;;;;;;2.43;2.23;;;36.60;36.90;;;;;;6214021;23;20378;-45
2022/09/04 14:29:55;;;;;;;3.27;2.30;;;36.70;36.20;;;;;;6215934;23;20427;-45
2022/09/04 14:32:31;;;;;;;2.00;1.80;;;36.00;36.70;;;;;;6215834;23;20405;-45